Time;durP1;ratioP1;P1;durP2;ratioP2;P2;SDS_P1;SDS_P2;PMS_P1;PMS_P2;Temp;Humidity;BMP_temperature;BMP_pressure;BME280_temperature;BME280_humidity;BME280_pressure;Samples;Min_cycle;Max_cycle;Signal;HPM_P1;HPM_P2
2023/10/02 00:01:57;;;;;;;19.92;6.43;;;;;;;15.41;100.00;102030.81;5246497;28;20548;-71
2023/10/02 00:04:34;;;;;;;21.60;7.95;;;;;;;15.39;100.00;102039.09;5253159;28;20095;-72
2023/10/02 00:07:14;;;;;;;19.35;7.18;;;;;;;15.40;100.00;102032.69;5255947;28;20035;-71
2023/10/02 00:09:49;;;;;;;15.52;6.30;;;;;;;15.39;100.00;102032.84;5256491;28;20024;-71
2023/10/02 00:12:21;;;;;;;15.13;5.70;;;;;;;15.36;100.00;102033.19;5251970;28;20535;-72
2023/10/02 00:14:53;;;;;;;13.73;5.22;;;;;;;15.33;100.00;102037.09;5253820;28;20024;-71
2023/10/02 00:17:24;;;;;;;13.18;5.45;;;;;;;15.33;100.00;102028.97;5243755;28;20087;-72
2023/10/02 00:19:59;;;;;;;13.73;5.82;;;;;;;15.35;100.00;102036.91;5248743;28;20020;-72
2023/10/02 00:22:38;;;;;;;17.70;7.57;;;;;;;15.31;100.00;102032.84;5250902;28;20030;-72
2023/10/02 00:25:20;;;;;;;17.63;6.70;;;;;;;15.33;100.00;102026.25;5253687;28;20016;-71
2023/10/02 00:27:54;;;;;;;11.73;4.57;;;;;;;15.35;100.00;102034.19;5248198;28;20015;-72
2023/10/02 00:30:36;;;;;;;7.38;3.83;;;;;;;15.28;100.00;102032.19;5248477;28;20081;-72
2023/10/02 00:33:11;;;;;;;6.13;2.78;;;;;;;15.27;100.00;102027.78;5251073;28;20538;-72
2023/10/02 00:35:50;;;;;;;10.00;4.18;;;;;;;15.23;100.00;102031.00;5247693;28;20027;-71
2023/10/02 00:38:22;;;;;;;9.32;3.55;;;;;;;15.22;100.00;102027.44;5251503;28;20493;-71
2023/10/02 00:40:58;;;;;;;5.93;2.75;;;;;;;15.19;100.00;102026.94;5256077;28;20020;-71
2023/10/02 00:43:35;;;;;;;4.72;2.33;;;;;;;15.15;100.00;102028.28;5250507;28;20078;-71
2023/10/02 00:46:23;;;;;;;40.92;4.80;;;;;;;15.09;100.00;102029.78;5253337;28;20111;-72
2023/10/02 00:48:54;;;;;;;42.15;6.60;;;;;;;15.02;100.00;102023.38;5248227;28;20024;-71
2023/10/02 00:51:27;;;;;;;21.35;4.43;;;;;;;14.97;100.00;102020.34;5250487;28;20025;-71
2023/10/02 00:54:23;;;;;;;13.15;5.22;;;;;;;14.95;100.00;102020.47;5255470;28;20016;-71
2023/10/02 00:56:51;;;;;;;13.57;5.72;;;;;;;14.96;100.00;102013.22;5252318;28;20020;-71
2023/10/02 00:59:25;;;;;;;21.25;6.65;;;;;;;14.99;100.00;102012.88;5250637;28;20562;-72
2023/10/02 01:02:05;;;;;;;20.65;7.35;;;;;;;15.00;100.00;102018.13;5256058;28;20496;-72
2023/10/02 01:04:36;;;;;;;16.90;5.88;;;;;;;15.02;100.00;102017.97;5252222;28;20023;-71
2023/10/02 01:07:26;;;;;;;16.90;6.35;;;;;;;15.01;100.00;102021.69;5252517;28;20077;-72
2023/10/02 01:10:10;;;;;;;19.60;7.00;;;;;;;14.99;100.00;102016.44;5249050;28;20023;-71
2023/10/02 01:12:53;;;;;;;15.73;6.10;;;;;;;15.01;100.00;102013.59;5254317;28;20115;-71
2023/10/02 01:15:26;;;;;;;22.83;8.32;;;;;;;15.01;100.00;102016.28;5250801;28;20048;-71
2023/10/02 01:20:59;;;;;;;18.67;7.55;;;;;;;14.99;100.00;102004.78;5247917;28;20063;-71
2023/10/02 01:23:40;;;;;;;21.67;7.88;;;;;;;15.01;100.00;102008.19;5245370;28;20017;-71
2023/10/02 01:26:23;;;;;;;23.15;8.25;;;;;;;14.99;100.00;101999.38;5248858;28;20028;-72
2023/10/02 01:29:07;;;;;;;19.90;7.07;;;;;;;14.99;100.00;101993.97;5244383;28;20029;-71
2023/10/02 01:31:44;;;;;;;19.38;7.15;;;;;;;15.05;100.00;102003.25;5254006;28;20024;-71
2023/10/02 01:34:34;;;;;;;17.80;6.13;;;;;;;15.07;100.00;102004.81;5248781;28;20021;-72
2023/10/02 01:37:32;;;;;;;18.15;7.18;;;;;;;15.05;100.00;102006.81;5247847;28;20028;-71
2023/10/02 01:40:28;;;;;;;17.85;6.85;;;;;;;15.03;100.00;102006.16;5248283;28;20024;-72
2023/10/02 01:42:47;;;;;;;18.38;6.80;;;;;;;15.01;100.00;102002.78;5251065;28;20099;-71
2023/10/02 01:45:21;;;;;;;20.23;6.78;;;;;;;14.97;100.00;102004.13;5246995;28;20020;-71
2023/10/02 01:47:55;;;;;;;15.80;6.18;;;;;;;14.93;100.00;102006.31;5246884;28;20024;-71
2023/10/02 01:50:35;;;;;;;17.10;7.30;;;;;;;14.91;100.00;102007.47;5242941;28;20021;-71
2023/10/02 01:53:06;;;;;;;17.00;6.05;;;;;;;14.91;100.00;102007.47;5251842;28;20016;-71
2023/10/02 01:55:40;;;;;;;21.73;8.35;;;;;;;14.92;100.00;102001.06;5251856;28;20415;-71
2023/10/02 01:58:17;;;;;;;23.27;9.07;;;;;;;14.94;100.00;102001.75;5248652;28;20111;-71
2023/10/02 02:01:00;;;;;;;21.67;9.93;;;;;;;14.93;100.00;101994.66;5248315;28;20169;-70
2023/10/02 02:03:33;;;;;;;21.02;7.50;;;;;;;14.85;100.00;101989.22;5247336;28;20009;-71
2023/10/02 02:06:09;;;;;;;23.40;8.43;;;;;;;14.90;100.00;101995.81;5247601;28;20024;-71
2023/10/02 02:08:43;;;;;;;18.70;7.45;;;;;;;14.89;100.00;101994.13;5246223;28;20385;-71
2023/10/02 02:11:23;;;;;;;21.75;7.97;;;;;;;14.85;100.00;101995.47;5251311;28;20236;-71
2023/10/02 02:13:59;;;;;;;18.40;7.82;;;;;;;14.85;100.00;101995.47;5246018;28;20063;-71
2023/10/02 02:16:34;;;;;;;18.52;6.78;;;;;;;14.82;100.00;102000.38;5249071;28;20020;-71
2023/10/02 02:19:12;;;;;;;21.58;7.70;;;;;;;14.76;100.00;101993.78;5248825;28;20028;-71
2023/10/02 02:21:47;;;;;;;22.33;7.53;;;;;;;14.74;100.00;101991.22;5251305;28;20512;-71
2023/10/02 02:24:21;;;;;;;15.35;6.82;;;;;;;14.72;100.00;101997.81;5245696;28;20025;-71
2023/10/02 02:26:57;;;;;;;15.65;6.57;;;;;;;14.69;100.00;101996.28;5247078;28;20016;-71
2023/10/02 02:29:28;;;;;;;18.25;7.03;;;;;;;14.67;100.00;101992.91;5244445;28;20477;-71
2023/10/02 02:32:06;;;;;;;19.67;6.72;;;;;;;14.65;100.00;101994.91;5249913;28;20017;-71
2023/10/02 02:34:42;;;;;;;26.77;8.10;;;;;;;14.66;100.00;101993.94;5247737;28;20182;-71
2023/10/02 02:37:28;;;;;;;20.42;8.00;;;;;;;14.67;100.00;101990.22;5247007;28;20028;-71
2023/10/02 02:40:32;;;;;;;19.15;7.72;;;;;;;14.69;100.00;101993.59;5242721;28;20031;-71
2023/10/02 02:42:56;;;;;;;17.00;7.28;;;;;;;14.70;100.00;101994.44;5247326;28;20016;-71
2023/10/02 02:45:28;;;;;;;30.17;7.25;;;;;;;14.67;100.00;101992.91;5244247;28;20028;-71
2023/10/02 02:48:05;;;;;;;29.35;6.85;;;;;;;14.65;100.00;101986.81;5250298;28;20365;-71
2023/10/02 02:50:40;;;;;;;15.43;6.50;;;;;;;14.63;100.00;101980.75;5251815;28;20036;-71
2023/10/02 02:53:30;;;;;;;13.90;4.32;;;;;;;14.58;100.00;101983.09;5253122;28;20112;-72
2023/10/02 02:56:18;;;;;;;17.15;5.93;;;;;;;14.54;100.00;101976.34;5244595;28;20670;-72
2023/10/02 02:58:52;;;;;;;15.10;4.68;;;;;;;14.47;100.00;101969.88;5250280;28;20027;-71
2023/10/02 03:01:23;;;;;;;11.97;4.57;;;;;;;14.42;100.00;101967.66;5248591;28;20541;-71
2023/10/02 03:03:56;;;;;;;11.43;4.72;;;;;;;14.43;100.00;101980.16;5245787;28;20103;-72
2023/10/02 03:06:27;;;;;;;8.63;3.95;;;;;;;14.41;100.00;101984.03;5250728;28;20021;-71
2023/10/02 03:09:05;;;;;;;6.57;2.97;;;;;;;14.39;100.00;101980.66;5244118;28;20035;-71
2023/10/02 03:11:38;;;;;;;7.35;3.30;;;;;;;14.35;100.00;101982.81;5254631;28;20055;-71
2023/10/02 03:14:20;;;;;;;6.53;3.22;;;;;;;14.33;100.00;101979.44;5251342;28;20082;-71
2023/10/02 03:16:51;;;;;;;10.63;4.47;;;;;;;14.29;100.00;101983.47;5247254;28;20025;-71
2023/10/02 03:19:25;;;;;;;13.80;4.70;;;;;;;14.30;100.00;101976.22;5247518;28;20029;-71
2023/10/02 03:22:01;;;;;;;10.48;4.25;;;;;;;14.28;100.00;101979.09;5250386;28;20111;-71
2023/10/02 03:24:45;;;;;;;10.60;4.20;;;;;;;14.25;100.00;101974.00;5251516;28;20121;-72
2023/10/02 03:27:16;;;;;;;13.02;5.05;;;;;;;14.22;100.00;101972.50;5250811;28;20020;-71
2023/10/02 03:29:52;;;;;;;13.82;5.13;;;;;;;14.19;100.00;101974.66;5250938;28;20530;-72
2023/10/02 03:32:42;;;;;;;15.10;6.35;;;;;;;14.20;100.00;101971.78;5247567;28;20033;-72
2023/10/02 03:35:16;;;;;;;14.25;5.95;;;;;;;14.15;100.00;101959.81;5247469;28;20029;-72
2023/10/02 03:37:51;;;;;;;15.73;6.15;;;;;;;14.18;100.00;101962.19;5256059;28;20020;-72
2023/10/02 03:40:27;;;;;;;19.08;6.50;;;;;;;14.16;100.00;101964.22;5243860;28;20025;-72
2023/10/02 03:43:18;;;;;;;12.77;5.60;;;;;;;14.15;100.00;101963.34;5250273;28;20102;-72
2023/10/02 03:45:53;;;;;;;13.50;5.13;;;;;;;14.12;100.00;101962.84;5250206;28;20024;-72
2023/10/02 03:48:28;;;;;;;18.35;4.90;;;;;;;14.10;100.00;101964.84;5245097;28;20024;-72
2023/10/02 03:51:04;;;;;;;14.60;5.00;;;;;;;14.06;100.00;101968.91;5250155;28;20020;-71
2023/10/02 03:53:35;;;;;;;14.00;5.97;;;;;;;14.08;100.00;101970.41;5248151;28;20064;-71
2023/10/02 03:59:02;;;;;;;15.02;6.22;;;;;;;14.11;100.00;101956.59;5252903;28;20027;-72
2023/10/02 04:01:33;;;;;;;;;;;;;;;14.07;100.00;101965.19;5250802;28;20035;-71
2023/10/02 04:06:53;;;;;;;16.85;6.63;;;;;;;14.00;100.00;101960.41;5251230;28;20028;-72
2023/10/02 04:09:25;;;;;;;17.00;6.47;;;;;;;13.97;100.00;101959.91;5245964;28;20477;-72
2023/10/02 04:11:56;;;;;;;17.52;6.28;;;;;;;13.94;100.00;101954.81;5249361;28;20024;-71
2023/10/02 04:14:33;;;;;;;17.80;6.80;;;;;;;13.92;100.00;101962.25;5249017;28;20032;-72
2023/10/02 04:17:10;;;;;;;23.92;8.43;;;;;;;13.95;100.00;101959.22;5244726;28;20477;-72
2023/10/02 04:19:56;;;;;;;21.40;7.85;;;;;;;13.97;100.00;101955.34;5251246;28;20024;-72
2023/10/02 04:22:31;;;;;;;25.52;7.70;;;;;;;13.96;100.00;101959.06;5248593;28;20012;-72
2023/10/02 04:25:04;;;;;;;23.20;8.37;;;;;;;13.96;100.00;101960.91;5245869;28;20016;-72
2023/10/02 04:30:24;;;;;;;24.58;7.95;;;;;;;13.91;100.00;101960.56;5249564;28;20480;-72
2023/10/02 04:32:59;;;;;;;26.50;8.23;;;;;;;13.90;100.00;101954.28;5240141;28;20020;-71
2023/10/02 04:35:44;;;;;;;26.15;8.90;;;;;;;13.93;100.00;101963.94;5254813;28;20048;-72
2023/10/02 04:38:47;;;;;;;21.80;7.85;;;;;;;13.92;100.00;101959.56;5249759;28;20028;-72
2023/10/02 04:41:25;;;;;;;23.88;8.70;;;;;;;13.85;100.00;101953.94;5244982;28;20158;-72
2023/10/02 04:44:08;;;;;;;21.55;7.85;;;;;;;13.86;100.00;101962.91;5247328;28;20017;-72
2023/10/02 04:46:45;;;;;;;25.65;8.40;;;;;;;13.82;100.00;101958.81;5250133;28;20023;-72
2023/10/02 04:49:21;;;;;;;16.58;4.68;;;;;;;13.77;100.00;101962.00;5250527;28;20025;-72
2023/10/02 04:51:53;;;;;;;12.43;4.93;;;;;;;13.73;100.00;101955.22;5250698;28;20073;-72
2023/10/02 04:54:24;;;;;;;20.40;5.13;;;;;;;13.70;100.00;101952.84;5247650;28;20024;-72
2023/10/02 04:57:11;;;;;;;11.32;4.13;;;;;;;13.63;100.00;101958.03;5248745;28;20530;-72
2023/10/02 04:59:51;;;;;;;19.67;5.82;;;;;;;13.58;100.00;101964.91;5249152;28;20108;-72
2023/10/02 05:02:24;;;;;;;18.77;6.32;;;;;;;13.56;100.00;101959.69;5249497;28;20020;-72
2023/10/02 05:04:56;;;;;;;16.48;6.28;;;;;;;13.54;100.00;101956.28;5250271;28;20101;-71
2023/10/02 05:07:28;;;;;;;17.95;6.10;;;;;;;13.54;100.00;101956.28;5246783;28;20469;-70
2023/10/02 05:10:06;;;;;;;13.25;4.72;;;;;;;13.51;100.00;101953.94;5242826;28;20027;-70
2023/10/02 05:12:37;;;;;;;18.17;5.32;;;;;;;13.46;100.00;101953.56;5251428;28;20131;-70
2023/10/02 05:15:13;;;;;;;12.93;5.22;;;;;;;13.45;100.00;101951.84;5248338;28;20470;-71
2023/10/02 05:17:47;;;;;;;12.93;5.57;;;;;;;13.43;100.00;101961.94;5247927;28;20204;-71
2023/10/02 05:20:26;;;;;;;13.00;5.35;;;;;;;13.41;100.00;101963.97;5244885;28;20409;-72
2023/10/02 05:22:58;;;;;;;13.70;4.93;;;;;;;13.40;100.00;101964.94;5248856;28;20066;-72
2023/10/02 05:25:29;;;;;;;13.65;5.53;;;;;;;13.41;100.00;101964.81;5246893;28;20021;-71
2023/10/02 05:28:01;;;;;;;17.58;7.32;;;;;;;13.39;100.00;101961.41;5248801;28;20028;-71
2023/10/02 05:30:42;;;;;;;13.05;5.13;;;;;;;13.38;100.00;101967.81;5250686;28;20028;-71
2023/10/02 05:33:16;;;;;;;15.30;6.07;;;;;;;13.41;100.00;101972.06;5248126;28;20070;-70
2023/10/02 05:35:49;;;;;;;19.05;8.30;;;;;;;13.39;100.00;101972.19;5251593;28;20042;-70
2023/10/02 05:38:23;;;;;;;31.77;10.00;;;;;;;13.40;100.00;101968.50;5246434;28;20294;-71
2023/10/02 05:40:58;;;;;;;26.05;9.73;;;;;;;13.41;100.00;101969.34;5252425;28;20345;-70
2023/10/02 05:43:31;;;;;;;24.20;8.65;;;;;;;13.42;100.00;101974.59;5246257;28;20051;-70
2023/10/02 05:46:07;;;;;;;28.40;9.50;;;;;;;13.42;100.00;101977.28;5248952;28;20039;-70
2023/10/02 05:48:40;;;;;;;16.45;8.13;;;;;;;13.42;100.00;101987.22;5251197;28;20067;-70
2023/10/02 05:51:12;;;;;;;19.02;8.85;;;;;;;13.44;100.00;101977.94;5251847;28;20077;-70
2023/10/02 05:53:53;;;;;;;24.98;8.07;;;;;;;13.44;100.00;101980.66;5252913;28;20063;-70
2023/10/02 05:56:25;;;;;;;19.42;7.85;;;;;;;13.44;100.00;101988.72;5244387;28;20070;-70
2023/10/02 05:58:56;;;;;;;21.67;7.65;;;;;;;13.52;100.00;101989.81;5245347;28;20036;-70
2023/10/02 06:01:34;;;;;;;15.52;6.65;;;;;;;13.54;100.00;101982.41;5244777;28;20023;-70
2023/10/02 06:04:11;;;;;;;17.33;6.57;;;;;;;13.54;100.00;101988.63;5247746;28;20024;-71
2023/10/02 06:06:42;;;;;;;14.90;6.30;;;;;;;13.53;100.00;101986.94;5251090;28;20031;-70
2023/10/02 06:09:14;;;;;;;14.68;5.78;;;;;;;13.57;100.00;101985.63;5248421;28;20024;-70
2023/10/02 06:12:02;;;;;;;10.20;4.90;;;;;;;13.58;100.00;101983.78;5248470;28;20032;-70
2023/10/02 06:14:42;;;;;;;14.95;5.25;;;;;;;13.61;100.00;101988.88;5246454;28;20029;-70
2023/10/02 06:17:21;;;;;;;21.38;7.85;;;;;;;13.66;100.00;101990.09;5246758;28;20027;-70
2023/10/02 06:19:54;;;;;;;20.85;8.05;;;;;;;13.71;100.00;101978.81;5246531;28;20081;-70
2023/10/02 06:22:28;;;;;;;17.85;6.97;;;;;;;13.83;100.00;101974.00;5248067;28;20108;-70
2023/10/02 06:24:58;;;;;;;14.82;6.13;;;;;;;13.88;100.00;101983.28;5247345;28;20560;-71
2023/10/02 06:27:41;;;;;;;21.13;6.43;;;;;;;13.94;100.00;101982.66;5254696;28;20025;-70
2023/10/02 06:30:16;;;;;;;15.45;7.25;;;;;;;14.05;100.00;101984.22;5249575;28;20055;-72
2023/10/02 06:32:53;;;;;;;22.10;6.63;;;;;;;14.20;100.00;101985.28;5252891;28;20032;-71
2023/10/02 06:35:26;;;;;;;15.90;6.57;;;;;;;14.34;100.00;101989.22;5243852;28;20024;-71
2023/10/02 06:38:15;;;;;;;17.80;7.13;;;;;;;14.48;100.00;101988.63;5251625;28;20016;-71
2023/10/02 06:40:56;;;;;;;16.80;6.70;;;;;;;14.69;100.00;101985.47;5254643;28;20393;-71
2023/10/02 06:43:28;;;;;;;15.93;6.43;;;;;;;15.05;100.00;101989.75;5251209;28;20023;-71
2023/10/02 06:46:13;;;;;;;17.48;5.82;;;;;;;15.31;100.00;101997.69;5250365;28;20420;-71
2023/10/02 06:48:43;;;;;;;15.35;6.38;;;;;;;15.73;100.00;101992.97;5252935;28;20081;-71
2023/10/02 06:51:14;;;;;;;18.00;6.38;;;;;;;16.09;100.00;101994.38;5250963;28;20028;-72
2023/10/02 06:53:45;;;;;;;19.77;7.57;;;;;;;16.34;100.00;101987.00;5256089;28;20419;-71
2023/10/02 06:56:18;;;;;;;21.98;8.38;;;;;;;16.57;100.00;101983.34;5251475;28;20028;-72
2023/10/02 06:58:49;;;;;;;21.70;7.90;;;;;;;16.94;100.00;101980.91;5253546;28;20028;-71
2023/10/02 07:01:20;;;;;;;20.52;8.32;;;;;;;17.37;100.00;101984.81;5251973;28;20024;-72
2023/10/02 07:03:51;;;;;;;20.00;8.23;;;;;;;17.92;100.00;101988.16;5254690;28;20016;-71
2023/10/02 07:06:24;;;;;;;26.88;10.05;;;;;;;18.36;100.00;101983.53;5247911;28;20024;-71
2023/10/02 07:09:10;;;;;;;26.63;11.02;;;;;;;18.77;100.00;101976.72;5250124;28;20029;-71
2023/10/02 07:11:42;;;;;;;27.58;11.43;;;;;;;19.34;100.00;101973.09;5251758;28;20024;-72
2023/10/02 07:14:14;;;;;;;30.58;11.25;;;;;;;19.84;100.00;101971.19;5253805;28;20070;-72
2023/10/02 07:16:47;;;;;;;24.75;11.25;;;;;;;20.29;100.00;101966.16;5255430;28;20028;-72
2023/10/02 07:19:38;;;;;;;24.30;10.57;;;;;;;20.69;100.00;101967.16;5251000;28;20060;-71
2023/10/02 07:22:16;;;;;;;32.25;10.98;;;;;;;20.79;100.00;101964.88;5248808;28;20016;-71
2023/10/02 07:24:47;;;;;;;26.77;10.73;;;;;;;20.93;100.00;101965.72;5250881;28;20087;-72
2023/10/02 07:30:09;;;;;;;26.33;11.13;;;;;;;21.31;100.00;101965.16;5253536;28;20039;-71
2023/10/02 07:32:39;;;;;;;28.20;11.20;;;;;;;21.26;100.00;101965.75;5252701;28;20043;-71
2023/10/02 07:35:17;;;;;;;28.58;11.25;;;;;;;21.29;100.00;101975.44;5252476;28;20032;-71
2023/10/02 07:37:58;;;;;;;29.20;11.70;;;;;;;21.55;100.00;101969.97;5254265;28;20027;-71
2023/10/02 07:40:46;;;;;;;27.92;11.73;;;;;;;21.60;100.00;101974.81;5250977;28;20104;-71
2023/10/02 07:43:18;;;;;;;31.48;11.30;;;;;;;21.51;100.00;101973.34;5251190;28;20020;-71
2023/10/02 07:46:02;;;;;;;30.70;11.57;;;;;;;21.56;100.00;101976.28;5241837;28;20478;-71
2023/10/02 07:48:35;;;;;;;27.02;10.73;;;;;;;21.65;100.00;101975.00;5248320;28;20020;-72
2023/10/02 07:51:06;;;;;;;37.67;12.20;;;;;;;21.75;100.00;101982.75;5253660;28;20189;-72
2023/10/02 07:53:40;;;;;;;29.65;10.98;;;;;;;21.86;100.00;101982.94;5251313;28;20489;-71
2023/10/02 07:56:14;;;;;;;27.33;11.75;;;;;;;21.72;100.00;101981.28;5247868;28;20028;-71
2023/10/02 07:58:54;;;;;;;29.20;11.77;;;;;;;21.62;100.00;101970.78;5253512;28;20085;-71
2023/10/02 08:01:27;;;;;;;32.05;12.40;;;;;;;21.63;100.00;101967.00;5250004;28;20485;-71
2023/10/02 08:03:57;;;;;;;32.22;12.60;;;;;;;21.77;100.00;101970.56;5252525;28;20024;-71
2023/10/02 08:11:54;;;;;;;30.85;11.40;;;;;;;22.93;100.00;101948.63;5251394;28;20095;-72
2023/10/02 08:14:35;;;;;;;29.13;11.20;;;;;;;23.10;100.00;101956.31;5253679;28;20027;-72
2023/10/02 08:17:27;;;;;;;33.35;12.20;;;;;;;23.55;100.00;101948.75;5252513;28;20081;-72
2023/10/02 08:20:15;;;;;;;33.60;11.77;;;;;;;24.11;100.00;101953.22;5249158;28;20161;-73
2023/10/02 08:22:46;;;;;;;24.65;11.20;;;;;;;24.45;100.00;101959.97;5252906;28;20031;-72
2023/10/02 08:25:17;;;;;;;29.17;11.57;;;;;;;24.31;100.00;101966.66;5250644;28;20012;-72
2023/10/02 08:27:55;;;;;;;29.70;12.27;;;;;;;24.35;100.00;101967.88;5254110;28;20103;-72
2023/10/02 08:33:06;;;;;;;31.60;12.07;;;;;;;25.02;100.00;101976.84;5251743;28;20365;-72
2023/10/02 08:35:37;;;;;;;30.73;12.15;;;;;;;25.18;100.00;101975.38;5255881;28;20025;-72
2023/10/02 08:38:07;;;;;;;37.67;13.15;;;;;;;25.27;100.00;101975.88;5247811;28;20029;-72
2023/10/02 08:40:40;;;;;;;28.23;11.65;;;;;;;25.68;100.00;101974.09;5255296;28;20021;-72
2023/10/02 08:43:10;;;;;;;31.55;11.70;;;;;;;25.64;100.00;101992.13;5254322;28;20031;-72
2023/10/02 08:45:44;;;;;;;26.85;12.63;;;;;;;25.34;100.00;101979.31;5253283;28;20480;-73
2023/10/02 08:48:19;;;;;;;27.08;12.07;;;;;;;24.93;100.00;101971.94;5246793;28;20056;-72
2023/10/02 08:50:50;;;;;;;28.25;12.70;;;;;;;25.06;100.00;101966.25;5253732;28;20545;-73
2023/10/02 08:53:21;;;;;;;29.85;12.50;;;;;;;24.91;100.00;101965.88;5251843;28;20017;-72
2023/10/02 08:56:21;;;;;;;35.13;13.15;;;;;;;24.94;100.00;101966.19;5253905;28;20027;-73
2023/10/02 09:01:41;;;;;;;35.13;13.43;;;;;;;25.19;100.00;101960.56;5255614;28;20031;-72
2023/10/02 09:04:21;;;;;;;27.27;12.13;;;;;;;25.46;100.00;101954.63;5251524;28;20020;-72
2023/10/02 09:06:58;;;;;;;27.30;12.23;;;;;;;25.19;100.00;101946.81;5252536;28;20504;-72
2023/10/02 09:09:36;;;;;;;32.22;12.18;;;;;;;25.28;100.00;101945.41;5250747;28;20071;-72
2023/10/02 09:12:15;;;;;;;33.47;12.43;;;;;;;25.19;100.00;101949.56;5250528;28;20097;-72
2023/10/02 09:14:46;;;;;;;26.90;11.95;;;;;;;25.21;100.00;101949.34;5252951;28;20013;-72
2023/10/02 09:17:16;;;;;;;30.40;12.68;;;;;;;25.12;100.00;101951.59;5252335;28;20020;-72
2023/10/02 09:20:03;;;;;;;30.38;12.70;;;;;;;25.46;100.00;101955.47;5249890;28;20031;-72
2023/10/02 09:22:37;;;;;;;31.05;11.77;;;;;;;25.60;100.00;101952.44;5251300;28;20048;-72
2023/10/02 09:25:10;;;;;;;28.05;11.77;;;;;;;25.54;100.00;101954.25;5248231;28;20403;-72
2023/10/02 09:27:56;;;;;;;34.58;13.32;;;;;;;25.61;100.00;101957.72;5252464;28;20042;-72
2023/10/02 09:33:08;;;;;;;26.17;12.45;;;;;;;25.84;100.00;101951.38;5249628;28;20552;-72
2023/10/02 09:38:13;;;;;;;27.55;12.38;;;;;;;25.93;100.00;101947.19;5252077;28;20101;-72
2023/10/02 09:40:58;;;;;;;28.20;12.15;;;;;;;26.33;100.00;101949.13;5253197;28;20389;-72
2023/10/02 09:43:31;;;;;;;27.48;11.95;;;;;;;26.16;100.00;101950.97;5248982;28;20066;-72
2023/10/02 09:46:06;;;;;;;26.67;12.63;;;;;;;26.00;100.00;101947.03;5248276;28;20029;-73
2023/10/02 09:48:46;;;;;;;28.70;11.65;;;;;;;25.68;100.00;101943.84;5253892;28;20025;-73
2023/10/02 09:51:26;;;;;;;30.58;11.85;;;;;;;25.44;100.00;101943.84;5250548;28;20017;-73
2023/10/02 09:54:09;;;;;;;31.52;12.88;;;;;;;25.48;100.00;101939.56;5250868;28;20029;-72
2023/10/02 09:56:52;;;;;;;28.77;12.80;;;;;;;25.42;100.00;101926.78;5254610;28;20553;-72
2023/10/02 09:59:23;;;;;;;33.13;12.23;;;;;;;25.26;100.00;101930.25;5243524;28;20396;-73
2023/10/02 10:05:00;;;;;;;31.63;12.32;;;;;;;25.03;100.00;101928.28;5254025;28;20024;-72
2023/10/02 10:10:48;;;;;;;31.75;12.43;;;;;;;24.94;100.00;101925.03;5252669;28;20050;-72
2023/10/02 10:13:37;;;;;;;28.35;11.40;;;;;;;25.03;100.00;101926.38;5250368;28;20044;-72
2023/10/02 10:16:18;;;;;;;29.33;11.55;;;;;;;25.50;100.00;101923.69;5247465;28;20385;-71
2023/10/02 10:21:56;;;;;;;27.58;12.23;;;;;;;25.86;100.00;101919.00;5247748;28;20036;-73
2023/10/02 10:24:56;;;;;;;31.98;12.75;;;;;;;26.07;100.00;101923.84;5238238;28;20016;-73
2023/10/02 10:27:40;;;;;;;32.90;12.52;;;;;;;25.72;100.00;101925.81;5244458;28;20027;-73
2023/10/02 10:30:33;;;;;;;26.70;11.57;;;;;;;25.62;100.00;101931.09;5247893;28;20028;-73
2023/10/02 10:35:48;;;;;;;27.58;13.05;;;;;;;25.62;100.00;101920.09;5251888;28;20044;-73
2023/10/02 10:38:22;;;;;;;29.08;12.18;;;;;;;25.59;100.00;101913.16;5249632;28;20107;-73
2023/10/02 10:40:54;;;;;;;33.05;11.48;;;;;;;25.73;100.00;101911.00;5250594;28;20109;-73
2023/10/02 10:43:26;;;;;;;29.55;12.70;;;;;;;25.84;100.00;101901.91;5245209;28;20023;-73
2023/10/02 10:45:56;;;;;;;32.33;12.30;;;;;;;25.93;100.00;101900.47;5245926;28;20043;-73
2023/10/02 10:48:27;;;;;;;30.85;12.50;;;;;;;25.96;100.00;101899.97;5247671;28;20029;-73
2023/10/02 10:51:06;;;;;;;32.10;13.15;;;;;;;25.99;100.00;101906.88;5248203;28;20115;-73
2023/10/02 10:53:41;;;;;;;28.27;12.80;;;;;;;25.69;100.00;101898.81;5249105;28;20363;-73
2023/10/02 10:56:17;;;;;;;26.23;11.98;;;;;;;25.70;100.00;101895.81;5246967;28;20024;-73
2023/10/02 10:58:53;;;;;;;33.55;12.10;;;;;;;25.58;100.00;101893.09;5252975;28;20103;-73
2023/10/02 11:01:23;;;;;;;30.48;11.93;;;;;;;25.87;100.00;101886.84;5244590;28;20044;-73
2023/10/02 11:04:02;;;;;;;29.30;12.20;;;;;;;25.83;100.00;101876.34;5250397;28;20503;-72
2023/10/02 11:06:40;;;;;;;28.85;10.90;;;;;;;25.78;100.00;101887.22;5247215;28;20094;-72
2023/10/02 11:09:11;;;;;;;26.85;11.32;;;;;;;25.73;100.00;101876.09;5245878;28;20291;-72
2023/10/02 11:11:49;;;;;;;28.40;11.85;;;;;;;25.77;100.00;101880.06;5246516;28;20524;-72
2023/10/02 11:14:34;;;;;;;31.13;11.38;;;;;;;25.74;100.00;101877.75;5248958;28;20021;-72
2023/10/02 11:17:04;;;;;;;27.83;11.73;;;;;;;25.79;100.00;101877.91;5250774;28;20435;-72
2023/10/02 11:19:45;;;;;;;26.05;11.82;;;;;;;25.73;100.00;101878.84;5244136;28;20532;-72
2023/10/02 11:22:16;;;;;;;29.40;12.27;;;;;;;25.57;100.00;101872.19;5240703;28;20496;-73
2023/10/02 11:25:17;;;;;;;29.10;11.68;;;;;;;25.83;100.00;101883.75;5250914;28;20025;-72
2023/10/02 11:27:56;;;;;;;30.88;12.77;;;;;;;25.97;100.00;101876.06;5250504;28;20024;-74
2023/10/02 11:30:33;;;;;;;30.25;11.77;;;;;;;26.14;100.00;101867.88;5248347;28;20456;-73
2023/10/02 11:33:07;;;;;;;30.20;13.18;;;;;;;26.20;100.00;101862.22;5244037;28;20464;-73
2023/10/02 11:35:38;;;;;;;26.27;11.18;;;;;;;26.53;100.00;101858.72;5255390;28;20147;-73
2023/10/02 11:38:09;;;;;;;30.17;11.73;;;;;;;26.46;100.00;101848.97;5246910;28;20730;-73
2023/10/02 11:40:43;;;;;;;24.08;10.77;;;;;;;26.52;100.00;101853.50;5254569;28;20117;-74
2023/10/02 11:43:15;;;;;;;29.55;12.25;;;;;;;26.72;100.00;101853.00;5240965;28;20024;-72
2023/10/02 11:45:47;;;;;;;32.42;12.98;;;;;;;26.90;100.00;101844.47;5249317;28;20013;-72
2023/10/02 11:48:18;;;;;;;30.77;12.15;;;;;;;26.77;100.00;101850.34;5251903;28;20047;-72
2023/10/02 11:50:50;;;;;;;34.47;12.80;;;;;;;26.94;100.00;101840.13;5254573;28;20012;-72
2023/10/02 11:53:21;;;;;;;30.73;12.55;;;;;;;27.08;100.00;101838.75;5252959;28;20029;-72
2023/10/02 11:55:54;;;;;;;26.00;11.43;;;;;;;27.12;100.00;101841.00;5253784;28;20024;-72
2023/10/02 11:58:25;;;;;;;26.02;12.15;;;;;;;27.12;100.00;101841.00;5255721;28;20496;-73
2023/10/02 12:00:57;;;;;;;27.80;11.98;;;;;;;27.00;100.00;101828.09;5256915;28;20032;-73
2023/10/02 12:03:27;;;;;;;27.50;11.93;;;;;;;27.17;100.00;101833.63;5257882;28;20047;-73
2023/10/02 12:05:58;;;;;;;27.02;12.02;;;;;;;27.25;100.00;101824.09;5259897;28;20116;-74
2023/10/02 12:08:29;;;;;;;28.15;11.10;;;;;;;27.55;100.00;101818.97;5252082;28;20527;-74
2023/10/02 12:11:00;;;;;;;31.38;12.90;;;;;;;27.65;100.00;101811.94;5258266;28;20031;-73
2023/10/02 12:13:31;;;;;;;29.75;12.30;;;;;;;27.58;100.00;101815.72;5255979;28;20008;-73
2023/10/02 12:16:02;;;;;;;26.88;12.57;;;;;;;27.45;100.00;101818.84;5253877;28;20645;-72
2023/10/02 12:18:33;;;;;;;27.92;11.77;;;;;;;27.06;100.00;101809.72;5257638;28;20078;-72
2023/10/02 12:21:08;;;;;;;26.65;12.05;;;;;;;27.19;100.00;101814.09;5250475;28;20032;-72
2023/10/02 12:23:40;;;;;;;31.13;12.90;;;;;;;27.36;100.00;101806.59;5253456;28;20028;-73
2023/10/02 12:26:17;;;;;;;29.38;12.48;;;;;;;27.49;100.00;101811.75;5253646;28;20028;-72
2023/10/02 12:28:49;;;;;;;28.40;11.25;;;;;;;27.25;100.00;101808.38;5253661;28;20330;-72
2023/10/02 12:31:19;;;;;;;28.92;12.00;;;;;;;27.10;100.00;101803.50;5252437;28;20474;-72